sensor_id;sensor_type;location;lat;lon;timestamp;P1;P2;P0
74880;PMS5003;63427;49.654;6.596;2023-02-01T00:00:58;29;27;
74880;PMS5003;63427;49.654;6.596;2023-02-01T00:03:24;19;18;
74880;PMS5003;63427;49.654;6.596;2023-02-01T00:08:15;17;16;
74880;PMS5003;63427;49.654;6.596;2023-02-01T00:10:40;24;24;
74880;PMS5003;63427;49.654;6.596;2023-02-01T00:13:05;31;29;
74880;PMS5003;63427;49.654;6.596;2023-02-01T00:15:31;24;24;
74880;PMS5003;63427;49.654;6.596;2023-02-01T00:17:56;23;22;
74880;PMS5003;63427;49.654;6.596;2023-02-01T00:20:22;31;29;
74880;PMS5003;63427;49.654;6.596;2023-02-01T00:22:48;21;20;
74880;PMS5003;63427;49.654;6.596;2023-02-01T00:25:13;19;18;
74880;PMS5003;63427;49.654;6.596;2023-02-01T00:27:38;21;21;
74880;PMS5003;63427;49.654;6.596;2023-02-01T00:30:05;23;22;
74880;PMS5003;63427;49.654;6.596;2023-02-01T00:32:29;34;32;
74880;PMS5003;63427;49.654;6.596;2023-02-01T00:34:54;25;25;
74880;PMS5003;63427;49.654;6.596;2023-02-01T00:37:20;32;31;
74880;PMS5003;63427;49.654;6.596;2023-02-01T00:39:46;23;22;
74880;PMS5003;63427;49.654;6.596;2023-02-01T00:42:11;27;27;
74880;PMS5003;63427;49.654;6.596;2023-02-01T00:44:37;22;21;
74880;PMS5003;63427;49.654;6.596;2023-02-01T00:47:02;28;27;
74880;PMS5003;63427;49.654;6.596;2023-02-01T00:49:27;20;20;
74880;PMS5003;63427;49.654;6.596;2023-02-01T00:51:53;19;17;
74880;PMS5003;63427;49.654;6.596;2023-02-01T00:54:18;24;21;
74880;PMS5003;63427;49.654;6.596;2023-02-01T00:56:44;24;23;
74880;PMS5003;63427;49.654;6.596;2023-02-01T00:59:10;29;28;
74880;PMS5003;63427;49.654;6.596;2023-02-01T01:01:35;20;19;
74880;PMS5003;63427;49.654;6.596;2023-02-01T01:04:00;24;24;
74880;PMS5003;63427;49.654;6.596;2023-02-01T01:06:27;19;17;
74880;PMS5003;63427;49.654;6.596;2023-02-01T01:08:51;22;20;
74880;PMS5003;63427;49.654;6.596;2023-02-01T01:11:17;22;21;
74880;PMS5003;63427;49.654;6.596;2023-02-01T01:13:42;23;22;
74880;PMS5003;63427;49.654;6.596;2023-02-01T01:16:08;18;17;
74880;PMS5003;63427;49.654;6.596;2023-02-01T01:18:33;23;23;
74880;PMS5003;63427;49.654;6.596;2023-02-01T01:20:58;28;28;
74880;PMS5003;63427;49.654;6.596;2023-02-01T01:23:24;17;16;
74880;PMS5003;63427;49.654;6.596;2023-02-01T01:25:49;24;22;
74880;PMS5003;63427;49.654;6.596;2023-02-01T01:28:15;20;19;
74880;PMS5003;63427;49.654;6.596;2023-02-01T01:30:40;22;20;
74880;PMS5003;63427;49.654;6.596;2023-02-01T01:33:06;23;22;
74880;PMS5003;63427;49.654;6.596;2023-02-01T01:35:32;22;21;
74880;PMS5003;63427;49.654;6.596;2023-02-01T01:37:57;20;20;
74880;PMS5003;63427;49.654;6.596;2023-02-01T01:40:23;20;20;
74880;PMS5003;63427;49.654;6.596;2023-02-01T01:42:48;22;22;
74880;PMS5003;63427;49.654;6.596;2023-02-01T01:47:39;24;23;
74880;PMS5003;63427;49.654;6.596;2023-02-01T01:50:04;22;21;
74880;PMS5003;63427;49.654;6.596;2023-02-01T01:52:28;27;26;
74880;PMS5003;63427;49.654;6.596;2023-02-01T01:54:54;24;23;
74880;PMS5003;63427;49.654;6.596;2023-02-01T01:57:20;19;19;
74880;PMS5003;63427;49.654;6.596;2023-02-01T01:59:47;19;19;
74880;PMS5003;63427;49.654;6.596;2023-02-01T02:02:10;27;26;
74880;PMS5003;63427;49.654;6.596;2023-02-01T02:04:35;27;26;
74880;PMS5003;63427;49.654;6.596;2023-02-01T02:07:02;16;16;
74880;PMS5003;63427;49.654;6.596;2023-02-01T02:09:27;19;17;
74880;PMS5003;63427;49.654;6.596;2023-02-01T02:11:52;26;24;
74880;PMS5003;63427;49.654;6.596;2023-02-01T02:14:18;20;20;
74880;PMS5003;63427;49.654;6.596;2023-02-01T02:16:50;26;25;
74880;PMS5003;63427;49.654;6.596;2023-02-01T02:19:22;20;19;
74880;PMS5003;63427;49.654;6.596;2023-02-01T02:21:41;21;21;
74880;PMS5003;63427;49.654;6.596;2023-02-01T02:24:05;20;19;
74880;PMS5003;63427;49.654;6.596;2023-02-01T02:31:23;28;25;
74880;PMS5003;63427;49.654;6.596;2023-02-01T02:33:44;22;22;
74880;PMS5003;63427;49.654;6.596;2023-02-01T02:36:07;19;18;
74880;PMS5003;63427;49.654;6.596;2023-02-01T02:38:32;22;21;
74880;PMS5003;63427;49.654;6.596;2023-02-01T02:40:58;26;23;
74880;PMS5003;63427;49.654;6.596;2023-02-01T02:43:24;21;20;
74880;PMS5003;63427;49.654;6.596;2023-02-01T02:45:49;18;18;
74880;PMS5003;63427;49.654;6.596;2023-02-01T02:48:16;26;25;
74880;PMS5003;63427;49.654;6.596;2023-02-01T02:50:41;19;19;
74880;PMS5003;63427;49.654;6.596;2023-02-01T02:53:07;23;23;
74880;PMS5003;63427;49.654;6.596;2023-02-01T02:55:31;22;21;
74880;PMS5003;63427;49.654;6.596;2023-02-01T02:57:56;26;25;
74880;PMS5003;63427;49.654;6.596;2023-02-01T03:00:22;22;20;
74880;PMS5003;63427;49.654;6.596;2023-02-01T03:02:47;27;25;
74880;PMS5003;63427;49.654;6.596;2023-02-01T03:05:13;30;30;
74880;PMS5003;63427;49.654;6.596;2023-02-01T03:10:05;31;30;
74880;PMS5003;63427;49.654;6.596;2023-02-01T03:12:30;27;26;
74880;PMS5003;63427;49.654;6.596;2023-02-01T03:14:56;23;22;
74880;PMS5003;63427;49.654;6.596;2023-02-01T03:17:22;23;22;
74880;PMS5003;63427;49.654;6.596;2023-02-01T03:19:47;26;26;
74880;PMS5003;63427;49.654;6.596;2023-02-01T03:22:12;24;24;
74880;PMS5003;63427;49.654;6.596;2023-02-01T03:24:37;23;22;
74880;PMS5003;63427;49.654;6.596;2023-02-01T03:27:04;23;22;
74880;PMS5003;63427;49.654;6.596;2023-02-01T03:29:29;31;31;
74880;PMS5003;63427;49.654;6.596;2023-02-01T03:31:53;29;26;
74880;PMS5003;63427;49.654;6.596;2023-02-01T03:34:18;24;24;
74880;PMS5003;63427;49.654;6.596;2023-02-01T03:36:46;29;27;
74880;PMS5003;63427;49.654;6.596;2023-02-01T03:39:11;24;24;
74880;PMS5003;63427;49.654;6.596;2023-02-01T03:41:35;23;22;
74880;PMS5003;63427;49.654;6.596;2023-02-01T03:44:01;29;27;
74880;PMS5003;63427;49.654;6.596;2023-02-01T03:46:27;24;23;
74880;PMS5003;63427;49.654;6.596;2023-02-01T03:48:50;21;21;
74880;PMS5003;63427;49.654;6.596;2023-02-01T03:51:16;24;22;
74880;PMS5003;63427;49.654;6.596;2023-02-01T03:53:41;28;26;
74880;PMS5003;63427;49.654;6.596;2023-02-01T03:56:07;20;18;
74880;PMS5003;63427;49.654;6.596;2023-02-01T03:58:32;25;23;
74880;PMS5003;63427;49.654;6.596;2023-02-01T04:00:58;24;23;
74880;PMS5003;63427;49.654;6.596;2023-02-01T04:03:23;24;21;
74880;PMS5003;63427;49.654;6.596;2023-02-01T04:05:48;20;20;
74880;PMS5003;63427;49.654;6.596;2023-02-01T04:08:14;23;21;
74880;PMS5003;63427;49.654;6.596;2023-02-01T04:10:40;21;21;
74880;PMS5003;63427;49.654;6.596;2023-02-01T04:13:05;22;20;
74880;PMS5003;63427;49.654;6.596;2023-02-01T04:15:30;21;21;
74880;PMS5003;63427;49.654;6.596;2023-02-01T04:17:56;20;20;
74880;PMS5003;63427;49.654;6.596;2023-02-01T04:20:22;28;26;
74880;PMS5003;63427;49.654;6.596;2023-02-01T04:22:47;28;27;
74880;PMS5003;63427;49.654;6.596;2023-02-01T04:25:12;19;19;
74880;PMS5003;63427;49.654;6.596;2023-02-01T04:27:37;24;23;
74880;PMS5003;63427;49.654;6.596;2023-02-01T04:30:02;21;21;
74880;PMS5003;63427;49.654;6.596;2023-02-01T04:32:28;21;21;
74880;PMS5003;63427;49.654;6.596;2023-02-01T04:34:53;23;22;
74880;PMS5003;63427;49.654;6.596;2023-02-01T04:37:19;22;22;
74880;PMS5003;63427;49.654;6.596;2023-02-01T04:39:44;28;27;
74880;PMS5003;63427;49.654;6.596;2023-02-01T04:42:09;23;22;
74880;PMS5003;63427;49.654;6.596;2023-02-01T04:44:35;25;24;
74880;PMS5003;63427;49.654;6.596;2023-02-01T04:47:01;17;17;
74880;PMS5003;63427;49.654;6.596;2023-02-01T04:49:26;22;22;
74880;PMS5003;63427;49.654;6.596;2023-02-01T04:51:52;19;18;
74880;PMS5003;63427;49.654;6.596;2023-02-01T04:54:17;25;24;
74880;PMS5003;63427;49.654;6.596;2023-02-01T04:56:42;22;18;
74880;PMS5003;63427;49.654;6.596;2023-02-01T04:59:09;31;31;
74880;PMS5003;63427;49.654;6.596;2023-02-01T05:01:33;18;17;
74880;PMS5003;63427;49.654;6.596;2023-02-01T05:03:59;22;21;
74880;PMS5003;63427;49.654;6.596;2023-02-01T05:06:24;23;22;
74880;PMS5003;63427;49.654;6.596;2023-02-01T05:08:50;22;21;
74880;PMS5003;63427;49.654;6.596;2023-02-01T05:11:15;19;19;
74880;PMS5003;63427;49.654;6.596;2023-02-01T05:13:41;33;30;
74880;PMS5003;63427;49.654;6.596;2023-02-01T05:16:07;32;30;
74880;PMS5003;63427;49.654;6.596;2023-02-01T05:18:32;28;27;
74880;PMS5003;63427;49.654;6.596;2023-02-01T05:20:58;23;22;
74880;PMS5003;63427;49.654;6.596;2023-02-01T05:23:23;28;28;
74880;PMS5003;63427;49.654;6.596;2023-02-01T05:25:49;19;19;
74880;PMS5003;63427;49.654;6.596;2023-02-01T05:28:14;21;19;
74880;PMS5003;63427;49.654;6.596;2023-02-01T05:30:39;22;21;
74880;PMS5003;63427;49.654;6.596;2023-02-01T05:33:05;17;16;
74880;PMS5003;63427;49.654;6.596;2023-02-01T05:35:30;25;25;
74880;PMS5003;63427;49.654;6.596;2023-02-01T05:37:55;27;25;
74880;PMS5003;63427;49.654;6.596;2023-02-01T05:40:21;28;25;
74880;PMS5003;63427;49.654;6.596;2023-02-01T05:42:46;26;24;
74880;PMS5003;63427;49.654;6.596;2023-02-01T05:45:12;21;19;
74880;PMS5003;63427;49.654;6.596;2023-02-01T05:47:37;17;17;
74880;PMS5003;63427;49.654;6.596;2023-02-01T05:50:03;24;23;
74880;PMS5003;63427;49.654;6.596;2023-02-01T05:52:28;20;20;
74880;PMS5003;63427;49.654;6.596;2023-02-01T05:54:53;22;20;
74880;PMS5003;63427;49.654;6.596;2023-02-01T05:57:19;19;17;
74880;PMS5003;63427;49.654;6.596;2023-02-01T05:59:44;17;17;
74880;PMS5003;63427;49.654;6.596;2023-02-01T06:02:10;19;17;
74880;PMS5003;63427;49.654;6.596;2023-02-01T06:04:35;25;25;
74880;PMS5003;63427;49.654;6.596;2023-02-01T06:07:01;15;15;
74880;PMS5003;63427;49.654;6.596;2023-02-01T06:09:27;17;15;
74880;PMS5003;63427;49.654;6.596;2023-02-01T06:11:52;23;19;
74880;PMS5003;63427;49.654;6.596;2023-02-01T06:14:18;15;15;
74880;PMS5003;63427;49.654;6.596;2023-02-01T06:16:43;14;13;
74880;PMS5003;63427;49.654;6.596;2023-02-01T06:19:08;16;16;
74880;PMS5003;63427;49.654;6.596;2023-02-01T06:21:34;19;17;
74880;PMS5003;63427;49.654;6.596;2023-02-01T06:24:00;23;21;
74880;PMS5003;63427;49.654;6.596;2023-02-01T06:26:26;24;23;
74880;PMS5003;63427;49.654;6.596;2023-02-01T06:28:51;13;13;
74880;PMS5003;63427;49.654;6.596;2023-02-01T06:31:16;12;10;
74880;PMS5003;63427;49.654;6.596;2023-02-01T06:33:42;18;17;
74880;PMS5003;63427;49.654;6.596;2023-02-01T06:36:09;18;17;
74880;PMS5003;63427;49.654;6.596;2023-02-01T06:38:34;9;9;
74880;PMS5003;63427;49.654;6.596;2023-02-01T06:40:59;9;8;
74880;PMS5003;63427;49.654;6.596;2023-02-01T06:43:25;10;8;
74880;PMS5003;63427;49.654;6.596;2023-02-01T06:45:51;7;6;
74880;PMS5003;63427;49.654;6.596;2023-02-01T06:48:16;8;7;
74880;PMS5003;63427;49.654;6.596;2023-02-01T06:50:42;7;6;
74880;PMS5003;63427;49.654;6.596;2023-02-01T06:53:07;6;5;
74880;PMS5003;63427;49.654;6.596;2023-02-01T06:55:33;5;4;
74880;PMS5003;63427;49.654;6.596;2023-02-01T06:57:59;7;7;
74880;PMS5003;63427;49.654;6.596;2023-02-01T07:00:25;7;6;
74880;PMS5003;63427;49.654;6.596;2023-02-01T07:02:50;7;6;
74880;PMS5003;63427;49.654;6.596;2023-02-01T07:05:16;7;6;
74880;PMS5003;63427;49.654;6.596;2023-02-01T07:07:42;13;11;
74880;PMS5003;63427;49.654;6.596;2023-02-01T07:10:08;8;6;
74880;PMS5003;63427;49.654;6.596;2023-02-01T07:12:33;7;7;
74880;PMS5003;63427;49.654;6.596;2023-02-01T07:14:58;8;7;
74880;PMS5003;63427;49.654;6.596;2023-02-01T07:17:24;7;6;
74880;PMS5003;63427;49.654;6.596;2023-02-01T07:19:49;10;9;
74880;PMS5003;63427;49.654;6.596;2023-02-01T07:22:15;6;5;
74880;PMS5003;63427;49.654;6.596;2023-02-01T07:24:40;9;7;
74880;PMS5003;63427;49.654;6.596;2023-02-01T07:27:05;12;10;
74880;PMS5003;63427;49.654;6.596;2023-02-01T07:29:31;9;9;
74880;PMS5003;63427;49.654;6.596;2023-02-01T07:31:57;12;12;
74880;PMS5003;63427;49.654;6.596;2023-02-01T07:34:22;9;8;
74880;PMS5003;63427;49.654;6.596;2023-02-01T07:36:48;9;8;
74880;PMS5003;63427;49.654;6.596;2023-02-01T07:39:13;12;11;
74880;PMS5003;63427;49.654;6.596;2023-02-01T07:41:39;8;7;
74880;PMS5003;63427;49.654;6.596;2023-02-01T07:44:05;11;10;
74880;PMS5003;63427;49.654;6.596;2023-02-01T07:46:30;9;9;
74880;PMS5003;63427;49.654;6.596;2023-02-01T07:48:56;9;8;
74880;PMS5003;63427;49.654;6.596;2023-02-01T07:51:22;9;9;
74880;PMS5003;63427;49.654;6.596;2023-02-01T07:53:47;11;10;
74880;PMS5003;63427;49.654;6.596;2023-02-01T07:56:13;9;8;
74880;PMS5003;63427;49.654;6.596;2023-02-01T07:58:38;11;9;
74880;PMS5003;63427;49.654;6.596;2023-02-01T08:01:03;9;7;
74880;PMS5003;63427;49.654;6.596;2023-02-01T08:03:29;9;8;
74880;PMS5003;63427;49.654;6.596;2023-02-01T08:05:54;10;10;
74880;PMS5003;63427;49.654;6.596;2023-02-01T08:08:20;9;8;
74880;PMS5003;63427;49.654;6.596;2023-02-01T08:10:45;9;8;
74880;PMS5003;63427;49.654;6.596;2023-02-01T08:13:11;11;10;
74880;PMS5003;63427;49.654;6.596;2023-02-01T08:15:37;9;7;
74880;PMS5003;63427;49.654;6.596;2023-02-01T08:18:02;8;7;
74880;PMS5003;63427;49.654;6.596;2023-02-01T08:20:28;5;5;
74880;PMS5003;63427;49.654;6.596;2023-02-01T08:22:53;9;9;
74880;PMS5003;63427;49.654;6.596;2023-02-01T08:25:19;7;7;
74880;PMS5003;63427;49.654;6.596;2023-02-01T08:27:45;10;9;
74880;PMS5003;63427;49.654;6.596;2023-02-01T08:30:11;10;9;
74880;PMS5003;63427;49.654;6.596;2023-02-01T08:32:36;11;8;
74880;PMS5003;63427;49.654;6.596;2023-02-01T08:35:03;6;5;
74880;PMS5003;63427;49.654;6.596;2023-02-01T08:37:27;7;7;
74880;PMS5003;63427;49.654;6.596;2023-02-01T08:39:53;7;7;
74880;PMS5003;63427;49.654;6.596;2023-02-01T08:42:18;12;11;
74880;PMS5003;63427;49.654;6.596;2023-02-01T08:44:44;6;6;
74880;PMS5003;63427;49.654;6.596;2023-02-01T08:47:09;10;7;
74880;PMS5003;63427;49.654;6.596;2023-02-01T08:49:35;7;7;
74880;PMS5003;63427;49.654;6.596;2023-02-01T08:52:01;8;7;
74880;PMS5003;63427;49.654;6.596;2023-02-01T08:54:26;9;9;
74880;PMS5003;63427;49.654;6.596;2023-02-01T08:56:52;7;6;
74880;PMS5003;63427;49.654;6.596;2023-02-01T08:59:18;7;6;
74880;PMS5003;63427;49.654;6.596;2023-02-01T09:01:43;5;5;
74880;PMS5003;63427;49.654;6.596;2023-02-01T09:04:09;8;7;
74880;PMS5003;63427;49.654;6.596;2023-02-01T09:06:34;11;10;
74880;PMS5003;63427;49.654;6.596;2023-02-01T09:09:00;9;9;
74880;PMS5003;63427;49.654;6.596;2023-02-01T09:11:26;9;9;
74880;PMS5003;63427;49.654;6.596;2023-02-01T09:13:51;8;7;
74880;PMS5003;63427;49.654;6.596;2023-02-01T09:16:17;8;6;
74880;PMS5003;63427;49.654;6.596;2023-02-01T09:18:42;6;6;
74880;PMS5003;63427;49.654;6.596;2023-02-01T09:21:08;8;7;
74880;PMS5003;63427;49.654;6.596;2023-02-01T09:23:34;8;8;
74880;PMS5003;63427;49.654;6.596;2023-02-01T09:25:59;7;7;
74880;PMS5003;63427;49.654;6.596;2023-02-01T09:28:24;8;7;
74880;PMS5003;63427;49.654;6.596;2023-02-01T09:30:54;8;7;
74880;PMS5003;63427;49.654;6.596;2023-02-01T09:33:16;6;6;
74880;PMS5003;63427;49.654;6.596;2023-02-01T09:35:42;7;6;
74880;PMS5003;63427;49.654;6.596;2023-02-01T09:38:07;9;7;
74880;PMS5003;63427;49.654;6.596;2023-02-01T09:40:33;7;7;
74880;PMS5003;63427;49.654;6.596;2023-02-01T09:43:02;9;8;
74880;PMS5003;63427;49.654;6.596;2023-02-01T09:45:26;7;6;
74880;PMS5003;63427;49.654;6.596;2023-02-01T09:47:51;9;8;
74880;PMS5003;63427;49.654;6.596;2023-02-01T09:50:18;9;7;
74880;PMS5003;63427;49.654;6.596;2023-02-01T09:52:43;9;9;
74880;PMS5003;63427;49.654;6.596;2023-02-01T09:55:09;7;7;
74880;PMS5003;63427;49.654;6.596;2023-02-01T09:57:37;6;6;
74880;PMS5003;63427;49.654;6.596;2023-02-01T09:59:59;7;7;
74880;PMS5003;63427;49.654;6.596;2023-02-01T10:02:24;6;6;
74880;PMS5003;63427;49.654;6.596;2023-02-01T10:04:48;6;6;
74880;PMS5003;63427;49.654;6.596;2023-02-01T10:07:18;14;12;
74880;PMS5003;63427;49.654;6.596;2023-02-01T10:09:42;9;8;
74880;PMS5003;63427;49.654;6.596;2023-02-01T10:14:36;9;7;
74880;PMS5003;63427;49.654;6.596;2023-02-01T10:16:56;9;8;
74880;PMS5003;63427;49.654;6.596;2023-02-01T10:19:23;8;8;
74880;PMS5003;63427;49.654;6.596;2023-02-01T10:21:50;7;6;
74880;PMS5003;63427;49.654;6.596;2023-02-01T10:24:17;8;8;
74880;PMS5003;63427;49.654;6.596;2023-02-01T10:26:39;9;8;
74880;PMS5003;63427;49.654;6.596;2023-02-01T10:29:04;8;8;
74880;PMS5003;63427;49.654;6.596;2023-02-01T10:31:29;10;7;
74880;PMS5003;63427;49.654;6.596;2023-02-01T10:33:55;8;6;
74880;PMS5003;63427;49.654;6.596;2023-02-01T10:36:21;7;7;
74880;PMS5003;63427;49.654;6.596;2023-02-01T10:38:45;7;6;
74880;PMS5003;63427;49.654;6.596;2023-02-01T10:41:11;8;7;
74880;PMS5003;63427;49.654;6.596;2023-02-01T10:43:36;9;7;
74880;PMS5003;63427;49.654;6.596;2023-02-01T10:46:02;8;7;
74880;PMS5003;63427;49.654;6.596;2023-02-01T10:48:27;8;7;
74880;PMS5003;63427;49.654;6.596;2023-02-01T10:50:53;9;7;
74880;PMS5003;63427;49.654;6.596;2023-02-01T10:53:20;6;6;
74880;PMS5003;63427;49.654;6.596;2023-02-01T10:55:48;8;8;
74880;PMS5003;63427;49.654;6.596;2023-02-01T10:58:14;9;8;
74880;PMS5003;63427;49.654;6.596;2023-02-01T11:00:38;4;4;
74880;PMS5003;63427;49.654;6.596;2023-02-01T11:03:01;7;7;
74880;PMS5003;63427;49.654;6.596;2023-02-01T11:05:27;7;7;
74880;PMS5003;63427;49.654;6.596;2023-02-01T11:07:53;6;6;
74880;PMS5003;63427;49.654;6.596;2023-02-01T11:12:44;7;7;
74880;PMS5003;63427;49.654;6.596;2023-02-01T11:15:13;8;7;
74880;PMS5003;63427;49.654;6.596;2023-02-01T11:17:38;7;6;
74880;PMS5003;63427;49.654;6.596;2023-02-01T11:20:00;6;6;
74880;PMS5003;63427;49.654;6.596;2023-02-01T11:22:26;7;7;
74880;PMS5003;63427;49.654;6.596;2023-02-01T11:24:51;11;8;
74880;PMS5003;63427;49.654;6.596;2023-02-01T11:27:17;8;6;
74880;PMS5003;63427;49.654;6.596;2023-02-01T11:29:43;7;6;
74880;PMS5003;63427;49.654;6.596;2023-02-01T11:32:08;6;6;
74880;PMS5003;63427;49.654;6.596;2023-02-01T11:34:35;8;7;
74880;PMS5003;63427;49.654;6.596;2023-02-01T11:37:00;8;7;
74880;PMS5003;63427;49.654;6.596;2023-02-01T11:39:26;8;8;
74880;PMS5003;63427;49.654;6.596;2023-02-01T11:41:57;7;6;
74880;PMS5003;63427;49.654;6.596;2023-02-01T11:44:19;14;14;
74880;PMS5003;63427;49.654;6.596;2023-02-01T11:46:41;10;10;
74880;PMS5003;63427;49.654;6.596;2023-02-01T11:49:14;8;8;
74880;PMS5003;63427;49.654;6.596;2023-02-01T11:51:37;9;9;
74880;PMS5003;63427;49.654;6.596;2023-02-01T11:54:02;6;5;
74880;PMS5003;63427;49.654;6.596;2023-02-01T11:56:25;12;11;
74880;PMS5003;63427;49.654;6.596;2023-02-01T11:58:53;9;8;
74880;PMS5003;63427;49.654;6.596;2023-02-01T12:01:19;6;5;
74880;PMS5003;63427;49.654;6.596;2023-02-01T12:03:45;7;7;
74880;PMS5003;63427;49.654;6.596;2023-02-01T12:06:07;8;7;
74880;PMS5003;63427;49.654;6.596;2023-02-01T12:08:39;6;5;
74880;PMS5003;63427;49.654;6.596;2023-02-01T12:11:02;6;6;
74880;PMS5003;63427;49.654;6.596;2023-02-01T12:13:26;8;7;
74880;PMS5003;63427;49.654;6.596;2023-02-01T12:15:52;5;5;
74880;PMS5003;63427;49.654;6.596;2023-02-01T12:18:26;12;9;
74880;PMS5003;63427;49.654;6.596;2023-02-01T12:23:10;8;8;
74880;PMS5003;63427;49.654;6.596;2023-02-01T12:25:33;8;7;
74880;PMS5003;63427;49.654;6.596;2023-02-01T12:28:01;8;8;
74880;PMS5003;63427;49.654;6.596;2023-02-01T12:30:28;11;7;
74880;PMS5003;63427;49.654;6.596;2023-02-01T12:32:51;8;7;
74880;PMS5003;63427;49.654;6.596;2023-02-01T12:35:14;10;8;
74880;PMS5003;63427;49.654;6.596;2023-02-01T12:37:43;8;8;
74880;PMS5003;63427;49.654;6.596;2023-02-01T12:40:05;8;7;
74880;PMS5003;63427;49.654;6.596;2023-02-01T12:42:30;7;6;
74880;PMS5003;63427;49.654;6.596;2023-02-01T12:44:55;6;6;
74880;PMS5003;63427;49.654;6.596;2023-02-01T12:47:21;6;5;
74880;PMS5003;63427;49.654;6.596;2023-02-01T12:49:47;6;6;
74880;PMS5003;63427;49.654;6.596;2023-02-01T12:52:13;6;6;
74880;PMS5003;63427;49.654;6.596;2023-02-01T12:54:37;5;5;
74880;PMS5003;63427;49.654;6.596;2023-02-01T12:57:03;6;5;
74880;PMS5003;63427;49.654;6.596;2023-02-01T12:59:29;5;4;
74880;PMS5003;63427;49.654;6.596;2023-02-01T13:01:54;10;9;
74880;PMS5003;63427;49.654;6.596;2023-02-01T13:04:20;6;5;
74880;PMS5003;63427;49.654;6.596;2023-02-01T13:06:45;6;5;
74880;PMS5003;63427;49.654;6.596;2023-02-01T13:09:12;5;4;
74880;PMS5003;63427;49.654;6.596;2023-02-01T13:11:36;6;5;
74880;PMS5003;63427;49.654;6.596;2023-02-01T13:14:02;8;6;
74880;PMS5003;63427;49.654;6.596;2023-02-01T13:16:27;7;6;
74880;PMS5003;63427;49.654;6.596;2023-02-01T13:18:51;7;7;
74880;PMS5003;63427;49.654;6.596;2023-02-01T13:21:18;6;6;
74880;PMS5003;63427;49.654;6.596;2023-02-01T13:23:43;7;7;
74880;PMS5003;63427;49.654;6.596;2023-02-01T13:26:08;6;5;
74880;PMS5003;63427;49.654;6.596;2023-02-01T13:28:36;6;5;
74880;PMS5003;63427;49.654;6.596;2023-02-01T13:31:05;5;4;
74880;PMS5003;63427;49.654;6.596;2023-02-01T13:33:28;5;5;
74880;PMS5003;63427;49.654;6.596;2023-02-01T13:35:53;7;6;
74880;PMS5003;63427;49.654;6.596;2023-02-01T13:40:41;7;6;
74880;PMS5003;63427;49.654;6.596;2023-02-01T13:43:09;6;6;
74880;PMS5003;63427;49.654;6.596;2023-02-01T13:45:33;7;7;
74880;PMS5003;63427;49.654;6.596;2023-02-01T13:47:59;8;7;
74880;PMS5003;63427;49.654;6.596;2023-02-01T13:50:24;5;5;
74880;PMS5003;63427;49.654;6.596;2023-02-01T13:52:51;8;7;
74880;PMS5003;63427;49.654;6.596;2023-02-01T13:55:16;6;6;
74880;PMS5003;63427;49.654;6.596;2023-02-01T13:57:41;7;6;
74880;PMS5003;63427;49.654;6.596;2023-02-01T14:00:07;9;8;
74880;PMS5003;63427;49.654;6.596;2023-02-01T14:04:56;7;6;
74880;PMS5003;63427;49.654;6.596;2023-02-01T14:07:22;6;6;
74880;PMS5003;63427;49.654;6.596;2023-02-01T14:09:47;5;5;
74880;PMS5003;63427;49.654;6.596;2023-02-01T14:14:39;6;5;
74880;PMS5003;63427;49.654;6.596;2023-02-01T14:19:29;8;6;
74880;PMS5003;63427;49.654;6.596;2023-02-01T14:21:55;7;6;
74880;PMS5003;63427;49.654;6.596;2023-02-01T14:24:20;6;6;
74880;PMS5003;63427;49.654;6.596;2023-02-01T14:26:46;5;5;
74880;PMS5003;63427;49.654;6.596;2023-02-01T14:29:21;5;4;
74880;PMS5003;63427;49.654;6.596;2023-02-01T14:31:40;4;4;
74880;PMS5003;63427;49.654;6.596;2023-02-01T14:34:02;6;5;
74880;PMS5003;63427;49.654;6.596;2023-02-01T14:38:53;6;5;
74880;PMS5003;63427;49.654;6.596;2023-02-01T14:41:25;5;4;
74880;PMS5003;63427;49.654;6.596;2023-02-01T14:46:10;6;6;
74880;PMS5003;63427;49.654;6.596;2023-02-01T14:48:43;6;6;
74880;PMS5003;63427;49.654;6.596;2023-02-01T14:51:01;9;7;
74880;PMS5003;63427;49.654;6.596;2023-02-01T14:53:27;7;6;
74880;PMS5003;63427;49.654;6.596;2023-02-01T14:55:52;5;4;
74880;PMS5003;63427;49.654;6.596;2023-02-01T14:58:20;6;5;
74880;PMS5003;63427;49.654;6.596;2023-02-01T15:00:46;6;4;
74880;PMS5003;63427;49.654;6.596;2023-02-01T15:03:15;5;5;
74880;PMS5003;63427;49.654;6.596;2023-02-01T15:05:34;7;7;
74880;PMS5003;63427;49.654;6.596;2023-02-01T15:08:03;7;6;
74880;PMS5003;63427;49.654;6.596;2023-02-01T15:10:25;9;9;
74880;PMS5003;63427;49.654;6.596;2023-02-01T15:12:51;6;5;
74880;PMS5003;63427;49.654;6.596;2023-02-01T15:15:18;12;11;
74880;PMS5003;63427;49.654;6.596;2023-02-01T15:17:41;8;8;
74880;PMS5003;63427;49.654;6.596;2023-02-01T15:20:12;6;6;
74880;PMS5003;63427;49.654;6.596;2023-02-01T15:22:33;6;6;
74880;PMS5003;63427;49.654;6.596;2023-02-01T15:24:59;5;5;
74880;PMS5003;63427;49.654;6.596;2023-02-01T15:27:24;7;7;
74880;PMS5003;63427;49.654;6.596;2023-02-01T15:29:49;8;8;
74880;PMS5003;63427;49.654;6.596;2023-02-01T15:34:44;7;6;
74880;PMS5003;63427;49.654;6.596;2023-02-01T15:37:05;8;7;
74880;PMS5003;63427;49.654;6.596;2023-02-01T15:39:31;8;7;
74880;PMS5003;63427;49.654;6.596;2023-02-01T15:41:57;6;6;
74880;PMS5003;63427;49.654;6.596;2023-02-01T15:46:48;7;5;
74880;PMS5003;63427;49.654;6.596;2023-02-01T15:49:17;7;6;
74880;PMS5003;63427;49.654;6.596;2023-02-01T15:51:43;11;9;
74880;PMS5003;63427;49.654;6.596;2023-02-01T15:54:04;9;8;
74880;PMS5003;63427;49.654;6.596;2023-02-01T15:56:33;8;7;
74880;PMS5003;63427;49.654;6.596;2023-02-01T15:58:56;6;5;
74880;PMS5003;63427;49.654;6.596;2023-02-01T16:01:21;7;6;
74880;PMS5003;63427;49.654;6.596;2023-02-01T16:03:46;9;7;
74880;PMS5003;63427;49.654;6.596;2023-02-01T16:08:48;5;5;
74880;PMS5003;63427;49.654;6.596;2023-02-01T16:13:29;6;6;
74880;PMS5003;63427;49.654;6.596;2023-02-01T16:15:54;7;6;
74880;PMS5003;63427;49.654;6.596;2023-02-01T16:18:20;6;6;
74880;PMS5003;63427;49.654;6.596;2023-02-01T16:20:46;5;5;
74880;PMS5003;63427;49.654;6.596;2023-02-01T16:23:11;8;8;
74880;PMS5003;63427;49.654;6.596;2023-02-01T16:25:36;8;6;
74880;PMS5003;63427;49.654;6.596;2023-02-01T16:28:02;7;6;
74880;PMS5003;63427;49.654;6.596;2023-02-01T16:30:28;8;6;
74880;PMS5003;63427;49.654;6.596;2023-02-01T16:32:53;8;7;
74880;PMS5003;63427;49.654;6.596;2023-02-01T16:35:20;6;6;
74880;PMS5003;63427;49.654;6.596;2023-02-01T16:37:44;7;7;
74880;PMS5003;63427;49.654;6.596;2023-02-01T16:40:12;7;7;
74880;PMS5003;63427;49.654;6.596;2023-02-01T16:42:35;7;7;
74880;PMS5003;63427;49.654;6.596;2023-02-01T16:45:00;9;8;
74880;PMS5003;63427;49.654;6.596;2023-02-01T16:47:26;12;11;
74880;PMS5003;63427;49.654;6.596;2023-02-01T16:49:52;8;6;
74880;PMS5003;63427;49.654;6.596;2023-02-01T16:52:18;6;6;
74880;PMS5003;63427;49.654;6.596;2023-02-01T16:54:43;7;5;
74880;PMS5003;63427;49.654;6.596;2023-02-01T16:57:11;7;7;
74880;PMS5003;63427;49.654;6.596;2023-02-01T16:59:34;8;7;
74880;PMS5003;63427;49.654;6.596;2023-02-01T17:01:59;8;6;
74880;PMS5003;63427;49.654;6.596;2023-02-01T17:04:25;9;8;
74880;PMS5003;63427;49.654;6.596;2023-02-01T17:06:51;9;7;